Time;durP1;ratioP1;P1;durP2;ratioP2;P2;SDS_P1;SDS_P2;PMS_P1;PMS_P2;Temp;Humidity;BMP_temperature;BMP_pressure;BME280_temperature;BME280_humidity;BME280_pressure;Samples;Min_cycle;Max_cycle;Signal;HPM_P1;HPM_P2
2022/01/16 00:00:51;;;;;;;142.40;43.17;;;3.20;99.90;;;;;;4806246;29;20057;-84
2022/01/16 00:06:01;;;;;;;119.30;43.65;;;6.20;99.90;;;;;;4804358;29;20545;-85
2022/01/16 00:08:27;;;;;;;120.10;43.35;;;;;;;;;;4805331;29;20072;-85
2022/01/16 00:10:53;;;;;;;147.52;37.92;;;4.90;99.90;;;;;;4805037;29;20046;-84
2022/01/16 00:13:19;;;;;;;163.95;43.50;;;2.00;99.90;;;;;;4788340;29;20062;-85
2022/01/16 00:15:45;;;;;;;134.15;42.13;;;4.00;99.90;;;;;;4805122;29;20054;-86
2022/01/16 00:18:23;;;;;;;113.00;42.70;;;1.90;99.90;;;;;;4805658;29;20065;-86
2022/01/16 00:20:50;;;;;;;140.07;42.50;;;3.40;99.90;;;;;;4806095;29;20131;-85
2022/01/16 00:23:25;;;;;;;130.43;42.83;;;3.70;99.90;;;;;;4803608;29;20405;-86
2022/01/16 00:25:52;;;;;;;149.43;44.80;;;4.00;99.90;;;;;;4816070;29;20065;-85
2022/01/16 00:28:18;;;;;;;140.60;44.45;;;1.20;99.90;;;;;;4809224;29;20149;-85
2022/01/16 00:30:44;;;;;;;220.75;46.25;;;;;;;;;;4790257;29;20062;-85
2022/01/16 00:33:10;;;;;;;159.35;43.42;;;4.90;99.90;;;;;;4787167;29;20057;-85
2022/01/16 00:35:37;;;;;;;118.28;41.85;;;3.60;99.90;;;;;;4807207;29;20050;-86
2022/01/16 00:38:04;;;;;;;151.98;43.08;;;3.50;99.90;;;;;;4802688;29;20054;-86
2022/01/16 00:40:30;;;;;;;162.30;45.08;;;;;;;;;;4818555;29;20047;-86
2022/01/16 00:42:57;;;;;;;144.57;42.25;;;5.70;99.90;;;;;;4805024;29;20043;-86
2022/01/16 00:45:23;;;;;;;163.32;40.53;;;;;;;;;;4805690;29;20051;-85
2022/01/16 00:47:49;;;;;;;179.43;46.22;;;3.70;99.90;;;;;;4805859;29;20058;-85
2022/01/16 00:50:14;;;;;;;172.52;42.05;;;4.00;99.90;;;;;;4804401;29;20184;-85
2022/01/16 00:52:41;;;;;;;150.13;44.53;;;;;;;;;;4805090;29;20544;-85
2022/01/16 00:55:07;;;;;;;156.00;44.83;;;2.30;99.90;;;;;;4788594;29;20051;-86
2022/01/16 00:57:33;;;;;;;127.05;42.45;;;3.60;99.90;;;;;;4804830;29;20137;-86
2022/01/16 00:59:59;;;;;;;140.55;44.03;;;;;;;;;;4804768;29;20458;-86
2022/01/16 01:02:25;;;;;;;256.75;46.72;;;3.70;99.90;;;;;;4804414;29;20476;-85
2022/01/16 01:04:51;;;;;;;164.75;47.25;;;5.50;99.90;;;;;;4805055;29;20082;-85
2022/01/16 01:07:17;;;;;;;134.33;42.33;;;2.80;99.90;;;;;;4804804;29;20098;-85
2022/01/16 01:09:43;;;;;;;125.88;44.33;;;3.20;99.90;;;;;;4788500;29;20095;-85
2022/01/16 01:12:10;;;;;;;138.90;45.58;;;3.30;99.90;;;;;;4804510;29;20485;-85
2022/01/16 01:14:42;;;;;;;133.20;44.78;;;3.60;99.90;;;;;;4803512;29;20508;-85
2022/01/16 01:17:12;;;;;;;165.75;43.85;;;3.60;99.90;;;;;;4805467;29;20080;-85
2022/01/16 01:19:39;;;;;;;126.80;44.67;;;;;;;;;;4803830;29;20054;-85
2022/01/16 01:22:05;;;;;;;124.78;43.17;;;0.70;99.90;;;;;;4804934;29;20119;-85
2022/01/16 01:24:34;;;;;;;136.75;44.00;;;4.00;99.90;;;;;;4803617;29;20225;-85
2022/01/16 01:27:17;;;;;;;124.80;44.72;;;3.70;99.90;;;;;;4804239;29;20115;-85
2022/01/16 01:29:49;;;;;;;150.20;50.13;;;3.40;99.90;;;;;;4788504;29;20059;-85
2022/01/16 01:32:15;;;;;;;200.70;49.42;;;;;;;;;;4804027;29;20150;-86
2022/01/16 01:34:41;;;;;;;173.10;54.80;;;3.40;99.90;;;;;;4804036;29;20059;-85
2022/01/16 01:37:07;;;;;;;152.80;50.22;;;3.00;99.90;;;;;;4803919;29;20046;-85
2022/01/16 01:39:32;;;;;;;162.77;52.70;;;4.00;99.90;;;;;;4803961;29;20138;-85
2022/01/16 01:42:07;;;;;;;186.50;53.70;;;2.90;99.90;;;;;;4804047;29;20057;-85
2022/01/16 01:52:46;;;;;;;159.80;50.30;;;3.70;99.90;;;;;;4799590;29;20093;-85
2022/01/16 01:55:12;;;;;;;173.35;53.80;;;5.10;99.90;;;;;;4786631;29;20422;-86
2022/01/16 01:57:38;;;;;;;186.70;51.03;;;3.30;99.90;;;;;;4795481;29;20054;-85
2022/01/16 02:00:06;;;;;;;151.43;49.05;;;5.90;99.90;;;;;;4803907;29;20059;-86
2022/01/16 02:02:44;;;;;;;175.77;50.85;;;4.00;99.90;;;;;;4803464;29;20515;-86
2022/01/16 02:05:10;;;;;;;141.30;48.33;;;4.70;99.90;;;;;;4802173;29;20403;-86
2022/01/16 02:07:36;;;;;;;169.32;56.22;;;6.40;99.90;;;;;;4803899;29;20470;-84
2022/01/16 02:10:03;;;;;;;168.00;51.40;;;4.30;99.90;;;;;;4803919;29;20055;-86
2022/01/16 02:12:30;;;;;;;158.30;49.17;;;4.00;99.90;;;;;;4803237;29;20053;-86
2022/01/16 02:15:06;;;;;;;170.73;49.23;;;4.30;99.90;;;;;;4803786;29;20138;-87
2022/01/16 02:29:08;;;;;;;270.43;58.93;;;;;;;;;;4766888;30;20077;-87
2022/01/16 02:31:33;;;;;;;224.60;60.50;;;1.50;99.90;;;;;;4800967;29;20070;-86
2022/01/16 02:36:48;;;;;;;224.57;55.03;;;3.70;99.90;;;;;;4803586;29;20103;-85
2022/01/16 02:39:16;;;;;;;294.37;57.63;;;;;;;;;;4786928;29;20067;-86
2022/01/16 02:41:44;;;;;;;308.30;56.78;;;3.70;99.90;;;;;;4803239;29;20177;-86
2022/01/16 02:44:23;;;;;;;230.50;55.38;;;4.90;99.90;;;;;;4803662;29;20397;-86
2022/01/16 02:46:49;;;;;;;254.10;61.75;;;3.10;99.90;;;;;;4804165;29;20067;-86
2022/01/16 02:49:30;;;;;;;231.40;53.50;;;3.80;99.90;;;;;;4803708;29;20047;-86
2022/01/16 02:52:01;;;;;;;249.70;58.25;;;2.80;99.90;;;;;;4803682;29;20133;-87
2022/01/16 02:54:28;;;;;;;321.00;62.88;;;3.80;99.90;;;;;;4803108;29;20125;-86
2022/01/16 02:56:54;;;;;;;319.70;65.20;;;4.90;99.90;;;;;;4802308;29;20062;-87
2022/01/16 02:59:22;;;;;;;340.00;65.07;;;;;;;;;;4788446;29;20382;-86
2022/01/16 03:01:48;;;;;;;283.63;60.73;;;3.80;99.90;;;;;;4802137;29;20412;-85
2022/01/16 03:04:16;;;;;;;332.30;63.40;;;3.80;99.90;;;;;;4786379;29;20379;-86
2022/01/16 03:06:41;;;;;;;306.85;60.70;;;3.80;99.90;;;;;;4802517;29;20051;-86
2022/01/16 03:09:09;;;;;;;463.67;72.33;;;3.30;99.90;;;;;;4802354;29;20099;-85
2022/01/16 03:11:41;;;;;;;295.88;64.57;;;4.10;99.90;;;;;;4785658;29;20130;-86
2022/01/16 03:14:12;;;;;;;303.80;61.55;;;3.90;99.90;;;;;;4803075;29;20078;-86
2022/01/16 03:16:41;;;;;;;295.50;61.30;;;5.40;99.90;;;;;;4805019;29;20063;-86
2022/01/16 03:21:54;;;;;;;374.83;71.35;;;4.00;99.90;;;;;;4790457;29;20046;-85
2022/01/16 03:24:27;;;;;;;385.13;82.35;;;4.70;99.90;;;;;;4790860;29;20078;-87
2022/01/16 03:27:08;;;;;;;542.13;104.53;;;3.40;99.90;;;;;;4805919;29;20054;-87
2022/01/16 03:29:35;;;;;;;401.77;95.97;;;4.70;99.90;;;;;;4806932;29;20145;-86
2022/01/16 03:32:02;;;;;;;361.65;78.13;;;4.20;99.90;;;;;;4805751;29;20054;-85
2022/01/16 03:34:28;;;;;;;360.08;97.45;;;3.90;99.90;;;;;;4807103;29;20047;-85
2022/01/16 03:36:54;;;;;;;368.60;87.50;;;4.50;99.90;;;;;;4804707;29;20073;-85
2022/01/16 03:39:20;;;;;;;439.25;105.57;;;5.00;99.90;;;;;;4806169;29;20057;-85
2022/01/16 03:41:46;;;;;;;364.15;97.70;;;;;;;;;;4789615;29;20546;-86
2022/01/16 03:44:12;;;;;;;386.83;94.13;;;3.60;99.90;;;;;;4806740;29;20437;-86
2022/01/16 03:46:41;;;;;;;331.17;77.65;;;3.10;99.90;;;;;;4790071;29;20058;-86
2022/01/16 03:49:14;;;;;;;355.67;69.80;;;4.70;99.90;;;;;;4806030;29;20042;-86
2022/01/16 03:51:41;;;;;;;329.50;66.97;;;5.50;99.90;;;;;;4806341;29;20469;-86
2022/01/16 03:54:08;;;;;;;318.98;65.18;;;4.00;99.90;;;;;;4805714;29;20049;-86
2022/01/16 03:56:35;;;;;;;401.33;67.68;;;4.10;99.90;;;;;;4805801;29;20481;-86
2022/01/16 03:59:01;;;;;;;333.40;70.87;;;;;;;;;;4789757;29;20065;-85
2022/01/16 04:01:27;;;;;;;334.40;66.15;;;4.60;99.90;;;;;;4776874;29;20082;-85
2022/01/16 04:03:54;;;;;;;335.50;69.30;;;5.70;99.90;;;;;;4797879;29;20714;-85
2022/01/16 04:06:21;;;;;;;360.27;65.10;;;6.40;99.90;;;;;;4813633;29;20050;-85
2022/01/16 04:08:48;;;;;;;313.55;68.50;;;3.60;99.90;;;;;;4795844;29;20396;-86
2022/01/16 04:11:14;;;;;;;365.70;70.45;;;6.40;99.90;;;;;;4777503;29;20405;-85
2022/01/16 04:13:49;;;;;;;303.88;57.92;;;;;;;;;;4805037;29;20062;-86
2022/01/16 04:16:15;;;;;;;343.73;67.22;;;5.70;99.90;;;;;;4793707;29;20065;-85
2022/01/16 04:18:41;;;;;;;346.80;66.95;;;;;;;;;;4813825;29;20055;-86
2022/01/16 04:21:07;;;;;;;331.23;69.40;;;4.10;99.90;;;;;;4793816;29;20440;-85
2022/01/16 04:23:33;;;;;;;351.92;65.90;;;;;;;;;;4795476;29;20119;-85
2022/01/16 04:25:59;;;;;;;332.67;60.00;;;;;;;;;;4802391;29;20082;-86
2022/01/16 04:28:25;;;;;;;290.35;60.80;;;3.10;99.90;;;;;;4805764;29;20408;-85
2022/01/16 04:30:54;;;;;;;327.00;65.55;;;5.80;99.90;;;;;;4773605;29;20058;-85
2022/01/16 04:33:20;;;;;;;342.05;65.15;;;4.90;99.90;;;;;;4774525;29;20051;-85
2022/01/16 04:35:46;;;;;;;352.55;64.80;;;2.60;99.90;;;;;;4788684;29;20122;-85
2022/01/16 04:38:12;;;;;;;392.92;66.63;;;;;;;;;;4790022;29;20059;-85
2022/01/16 04:43:47;;;;;;;341.40;63.25;;;5.50;99.90;;;;;;4805750;29;20143;-86
2022/01/16 04:43:48;;;;;;;326.02;63.15;;;;;;;;;;4802028;29;20066;-85
2022/01/16 04:46:16;;;;;;;395.47;66.20;;;4.80;99.90;;;;;;4771228;30;20386;-85
2022/01/16 04:48:42;;;;;;;309.65;61.22;;;;;;;;;;4798450;29;20051;-85
2022/01/16 04:51:09;;;;;;;342.42;64.22;;;;;;;;;;4808099;29;20244;-86
2022/01/16 04:53:35;;;;;;;365.90;65.10;;;4.30;99.90;;;;;;4809982;29;20097;-85
2022/01/16 04:56:00;;;;;;;353.52;63.38;;;5.20;99.90;;;;;;4787916;29;20504;-85
2022/01/16 04:58:26;;;;;;;359.17;65.57;;;4.10;99.90;;;;;;4810955;29;20053;-86
2022/01/16 05:00:54;;;;;;;359.27;64.85;;;2.50;99.90;;;;;;4784355;29;20442;-86
2022/01/16 05:03:20;;;;;;;;;;;6.40;99.90;;;;;;4774537;29;20063;-86
2022/01/16 05:05:46;;;;;;;348.05;64.20;;;3.80;99.90;;;;;;4803378;29;19925;-85
2022/01/16 05:08:12;;;;;;;361.95;64.15;;;5.40;99.90;;;;;;4812887;29;20404;-87
2022/01/16 05:10:38;;;;;;;363.45;65.63;;;3.80;99.90;;;;;;4790749;29;20054;-87
2022/01/16 05:18:42;;;;;;;324.08;65.60;;;4.60;99.90;;;;;;4813587;29;20468;-87
2022/01/16 05:21:08;;;;;;;347.83;65.40;;;4.80;99.90;;;;;;4808177;29;20093;-86
2022/01/16 05:23:34;;;;;;;384.02;70.18;;;5.00;99.90;;;;;;4805255;29;20255;-86
2022/01/16 05:26:00;;;;;;;388.73;70.03;;;5.30;99.90;;;;;;4786918;29;20055;-86
2022/01/16 05:28:27;;;;;;;408.38;69.18;;;5.30;99.90;;;;;;4788269;29;20097;-85
2022/01/16 05:30:53;;;;;;;367.77;67.32;;;4.80;99.90;;;;;;4803659;29;20139;-85
2022/01/16 05:33:19;;;;;;;339.38;64.70;;;4.60;99.90;;;;;;4788801;29;20043;-86
2022/01/16 05:35:45;;;;;;;321.75;65.55;;;;;;;;;;4786950;29;20058;-87
2022/01/16 05:38:11;;;;;;;367.30;66.63;;;;;;;;;;4803003;29;20054;-86
2022/01/16 05:40:38;;;;;;;355.55;71.53;;;4.90;99.90;;;;;;4786789;29;20050;-87
2022/01/16 05:43:04;;;;;;;328.77;63.38;;;5.00;99.90;;;;;;4804217;29;20158;-86
2022/01/16 05:45:30;;;;;;;358.77;73.45;;;4.60;99.90;;;;;;4804247;29;20103;-86
2022/01/16 05:47:56;;;;;;;336.98;69.40;;;3.20;99.90;;;;;;4803997;29;20047;-87
2022/01/16 05:50:23;;;;;;;373.02;71.55;;;4.50;99.90;;;;;;4803773;29;20363;-86
2022/01/16 05:52:49;;;;;;;370.80;69.53;;;5.30;99.90;;;;;;4770091;30;20047;-87
2022/01/16 05:55:15;;;;;;;352.52;73.57;;;;;;;;;;4803315;29;20051;-86
2022/01/16 05:57:42;;;;;;;321.58;68.30;;;4.70;99.90;;;;;;4804088;29;20416;-85
2022/01/16 06:00:09;;;;;;;340.63;70.50;;;2.50;99.90;;;;;;4802668;29;20497;-86
2022/01/16 06:02:36;;;;;;;340.33;74.03;;;4.80;99.90;;;;;;4803252;29;20107;-86
2022/01/16 06:05:02;;;;;;;318.30;72.07;;;;;;;;;;4803833;29;20146;-86
2022/01/16 06:07:28;;;;;;;346.70;73.22;;;4.80;99.90;;;;;;4804381;29;20047;-86
2022/01/16 06:09:53;;;;;;;328.13;69.00;;;5.20;99.90;;;;;;4772216;29;20051;-87
2022/01/16 06:12:20;;;;;;;331.73;73.55;;;;;;;;;;4804210;29;20213;-86
2022/01/16 06:14:46;;;;;;;316.60;72.93;;;4.70;99.90;;;;;;4804037;29;20123;-86
2022/01/16 06:17:11;;;;;;;359.05;75.47;;;6.80;99.90;;;;;;4804174;29;20078;-86
2022/01/16 06:19:37;;;;;;;292.48;64.30;;;4.70;99.90;;;;;;4787296;29;20128;-85
2022/01/16 06:22:03;;;;;;;299.10;68.22;;;5.30;99.90;;;;;;4807784;29;20439;-85
2022/01/16 06:24:29;;;;;;;307.98;70.80;;;2.80;99.90;;;;;;4808165;29;20081;-86
2022/01/16 06:26:56;;;;;;;318.00;70.03;;;;;;;;;;4788400;29;20095;-86
2022/01/16 06:29:22;;;;;;;325.38;72.82;;;;;;;;;;4803475;29;20054;-86
2022/01/16 06:31:47;;;;;;;342.60;68.38;;;3.90;99.90;;;;;;4802834;29;20063;-85
2022/01/16 06:34:13;;;;;;;298.90;70.32;;;5.10;99.90;;;;;;4788669;29;20055;-87
2022/01/16 06:36:40;;;;;;;299.90;68.63;;;4.70;99.90;;;;;;4803923;29;20051;-86
2022/01/16 06:39:09;;;;;;;260.27;64.87;;;5.20;99.90;;;;;;4801948;29;20126;-87
2022/01/16 06:41:34;;;;;;;314.08;69.20;;;5.00;99.90;;;;;;4802949;29;20131;-87
2022/01/16 06:44:01;;;;;;;305.85;72.97;;;4.20;99.90;;;;;;4803259;29;20497;-87
2022/01/16 06:46:27;;;;;;;307.05;73.20;;;7.70;99.90;;;;;;4803952;29;20055;-87
2022/01/16 06:48:53;;;;;;;291.90;68.13;;;2.20;99.90;;;;;;4802647;29;20086;-87
2022/01/16 06:51:20;;;;;;;269.38;67.53;;;6.30;99.90;;;;;;4803609;29;20086;-86
2022/01/16 06:53:46;;;;;;;292.97;73.10;;;5.70;99.90;;;;;;4787384;29;20077;-86
2022/01/16 06:56:13;;;;;;;285.73;70.88;;;;;;;;;;4784519;29;20163;-86
2022/01/16 06:58:38;;;;;;;308.40;69.82;;;4.70;99.90;;;;;;4786257;29;20065;-87
2022/01/16 07:01:04;;;;;;;305.85;73.00;;;5.40;99.90;;;;;;4802741;29;20046;-87
2022/01/16 07:03:30;;;;;;;301.55;68.35;;;;;;;;;;4802828;29;20139;-86
2022/01/16 07:05:57;;;;;;;311.40;74.18;;;6.30;99.90;;;;;;4802031;29;20488;-85
2022/01/16 07:08:26;;;;;;;292.13;73.65;;;5.60;99.90;;;;;;4802754;29;20074;-87
2022/01/16 07:10:53;;;;;;;316.48;76.38;;;6.40;99.90;;;;;;4789453;29;20119;-86
2022/01/16 07:13:21;;;;;;;294.67;72.97;;;6.30;99.90;;;;;;4803014;29;20061;-86
2022/01/16 07:15:47;;;;;;;266.63;68.70;;;8.00;99.90;;;;;;4786996;29;20077;-86
2022/01/16 07:18:13;;;;;;;274.63;66.68;;;5.40;99.90;;;;;;4803540;29;20138;-86
2022/01/16 07:20:39;;;;;;;273.48;66.53;;;5.60;99.90;;;;;;4803732;29;20461;-87
2022/01/16 07:23:05;;;;;;;286.08;69.50;;;5.80;99.90;;;;;;4801996;29;20585;-87
2022/01/16 07:25:31;;;;;;;280.85;69.45;;;7.30;99.90;;;;;;4802769;29;20050;-86
2022/01/16 07:27:56;;;;;;;290.73;73.13;;;6.70;99.90;;;;;;4807386;29;20469;-86
2022/01/16 07:30:22;;;;;;;292.77;73.68;;;5.40;99.90;;;;;;4802048;29;20077;-85
2022/01/16 07:32:48;;;;;;;288.40;72.10;;;7.00;99.90;;;;;;4801934;29;20096;-86
2022/01/16 07:35:13;;;;;;;299.98;70.97;;;6.50;99.90;;;;;;4801503;29;20051;-86
2022/01/16 07:37:39;;;;;;;286.95;73.55;;;5.60;99.90;;;;;;4801168;29;20046;-85
2022/01/16 07:40:05;;;;;;;235.07;67.80;;;6.70;99.90;;;;;;4796923;29;20055;-86
2022/01/16 07:42:32;;;;;;;268.65;71.65;;;6.00;99.90;;;;;;4778156;29;20051;-85
2022/01/16 07:44:59;;;;;;;282.67;73.50;;;;;;;;;;4791120;29;20078;-87
2022/01/16 07:47:24;;;;;;;272.58;69.72;;;7.20;99.90;;;;;;4791527;29;20328;-87
2022/01/16 07:49:50;;;;;;;254.70;69.65;;;5.80;99.90;;;;;;4784978;29;20061;-85
2022/01/16 07:52:16;;;;;;;285.13;72.57;;;6.00;99.90;;;;;;4786968;29;20461;-85
2022/01/16 07:54:41;;;;;;;239.98;70.32;;;7.70;99.90;;;;;;4785914;29;20134;-86
2022/01/16 07:57:08;;;;;;;260.15;71.85;;;;;;;;;;4784772;29;20051;-85
2022/01/16 07:59:34;;;;;;;245.37;71.30;;;5.70;99.90;;;;;;4803233;29;20067;-85
2022/01/16 08:02:00;;;;;;;256.42;73.00;;;5.90;99.90;;;;;;4805133;29;20524;-86
2022/01/16 08:04:26;;;;;;;237.25;68.05;;;7.30;99.90;;;;;;4806405;29;20043;-84
2022/01/16 08:06:51;;;;;;;251.95;75.80;;;6.50;99.90;;;;;;4805828;29;20187;-85
2022/01/16 08:09:17;;;;;;;250.90;77.35;;;5.10;99.90;;;;;;4789205;29;20062;-85
2022/01/16 08:11:42;;;;;;;239.20;70.47;;;8.30;99.90;;;;;;4806189;29;20141;-85
2022/01/16 08:14:08;;;;;;;244.73;73.03;;;6.00;99.90;;;;;;4794720;29;20055;-86
2022/01/16 08:16:34;;;;;;;225.40;68.78;;;7.20;99.90;;;;;;4789816;29;20063;-85
2022/01/16 08:19:00;;;;;;;235.48;71.32;;;;;;;;;;4806554;29;20047;-88
2022/01/16 08:21:26;;;;;;;253.00;75.28;;;;;;;;;;4805892;29;20058;-86
2022/01/16 08:23:52;;;;;;;230.27;71.63;;;;;;;;;;4806914;29;20223;-87
2022/01/16 08:26:18;;;;;;;217.63;71.57;;;6.10;99.90;;;;;;4803500;29;20427;-86
2022/01/16 08:28:43;;;;;;;238.38;72.57;;;7.30;99.90;;;;;;4805446;29;20058;-86
2022/01/16 08:31:09;;;;;;;208.98;71.50;;;4.10;99.90;;;;;;4798521;29;20062;-87
2022/01/16 08:33:35;;;;;;;231.15;72.05;;;6.10;99.90;;;;;;4809201;29;20043;-86
2022/01/16 08:36:00;;;;;;;221.32;75.82;;;9.30;99.90;;;;;;4809490;29;20047;-85
2022/01/16 08:38:27;;;;;;;228.32;70.03;;;6.00;99.90;;;;;;4806501;29;20509;-85
2022/01/16 08:40:53;;;;;;;205.05;71.97;;;7.00;99.90;;;;;;4788987;29;20540;-84
2022/01/16 08:43:19;;;;;;;203.48;65.85;;;7.00;99.90;;;;;;4804434;29;20123;-85
2022/01/16 08:45:46;;;;;;;194.70;68.28;;;6.30;99.90;;;;;;4805673;29;20125;-85
2022/01/16 08:48:12;;;;;;;186.50;66.73;;;8.30;99.90;;;;;;4809283;29;20055;-86
2022/01/16 08:50:39;;;;;;;179.43;65.40;;;5.60;99.90;;;;;;4789746;29;20830;-85
2022/01/16 08:53:05;;;;;;;182.80;64.65;;;5.40;99.90;;;;;;4805260;29;20082;-86
2022/01/16 08:55:33;;;;;;;182.63;67.35;;;8.80;99.90;;;;;;4804843;29;20042;-85
2022/01/16 08:57:59;;;;;;;;;;;7.40;99.90;;;;;;4810919;29;20093;-85
2022/01/16 09:00:26;;;;;;;172.45;63.67;;;6.50;99.90;;;;;;4787431;29;19929;-85
2022/01/16 09:02:51;;;;;;;177.02;60.65;;;6.50;99.90;;;;;;4789003;29;20073;-86
2022/01/16 09:05:17;;;;;;;172.57;64.35;;;6.30;99.90;;;;;;4789513;29;20489;-85
2022/01/16 09:07:43;;;;;;;171.10;63.40;;;6.70;99.90;;;;;;4790550;29;20073;-84
2022/01/16 09:10:09;;;;;;;163.05;62.45;;;7.20;99.90;;;;;;4808269;29;20046;-84
2022/01/16 09:12:36;;;;;;;159.73;61.80;;;;;;;;;;4803047;29;20085;-85
2022/01/16 09:15:06;;;;;;;149.57;58.80;;;6.90;99.90;;;;;;4818492;29;20065;-88
2022/01/16 09:17:32;;;;;;;145.55;60.25;;;6.80;99.90;;;;;;4806920;29;20134;-88
2022/01/16 09:19:57;;;;;;;121.63;53.40;;;6.90;99.90;;;;;;4779197;29;20145;-85
2022/01/16 09:22:24;;;;;;;124.97;55.78;;;;;;;;;;4816198;29;20145;-86
2022/01/16 09:24:50;;;;;;;130.00;52.17;;;6.90;99.90;;;;;;4805931;29;20055;-87
2022/01/16 09:27:18;;;;;;;116.90;53.42;;;6.50;99.90;;;;;;4802755;29;20066;-88
2022/01/16 09:29:44;;;;;;;;;;;7.00;99.90;;;;;;4808697;29;20085;-84
2022/01/16 09:32:13;;;;;;;118.45;49.58;;;7.60;99.90;;;;;;4815675;29;19928;-85
2022/01/16 09:34:42;;;;;;;113.32;50.00;;;7.10;99.90;;;;;;4823459;29;20073;-85
2022/01/16 09:37:09;;;;;;;109.22;47.35;;;7.60;99.90;;;;;;4805568;29;20420;-85
2022/01/16 09:39:39;;;;;;;95.60;46.67;;;5.40;99.90;;;;;;4802766;29;20481;-85
2022/01/16 09:42:07;;;;;;;93.80;47.30;;;7.20;99.90;;;;;;4804556;29;20104;-85
2022/01/16 09:44:40;;;;;;;92.00;49.33;;;7.20;99.90;;;;;;4788529;29;20067;-85
2022/01/16 09:47:06;;;;;;;96.93;47.42;;;7.80;99.90;;;;;;4804656;29;20047;-85
2022/01/16 09:49:32;;;;;;;87.20;47.00;;;7.70;99.90;;;;;;4804127;29;20053;-84
2022/01/16 09:51:58;;;;;;;84.65;45.25;;;7.30;99.90;;;;;;4788766;29;20387;-84
2022/01/16 09:54:24;;;;;;;82.90;41.72;;;7.90;99.90;;;;;;4803968;29;20057;-84
2022/01/16 09:56:50;;;;;;;82.75;42.97;;;8.00;99.90;;;;;;4788181;29;20055;-85
2022/01/16 09:59:17;;;;;;;89.85;43.40;;;7.30;99.90;;;;;;4802862;29;20137;-85
2022/01/16 10:01:42;;;;;;;79.88;42.15;;;9.50;99.90;;;;;;4804800;29;20222;-84
2022/01/16 10:04:46;;;;;;;64.20;39.10;;;8.90;99.90;;;;;;4804856;29;20205;-84
2022/01/16 10:07:14;;;;;;;68.97;37.83;;;7.50;99.90;;;;;;4787735;29;20138;-83
2022/01/16 10:09:46;;;;;;;82.18;39.05;;;9.10;99.90;;;;;;4804109;29;20133;-84
2022/01/16 10:12:17;;;;;;;78.80;39.58;;;7.50;99.90;;;;;;4804328;29;20051;-84
2022/01/16 10:14:49;;;;;;;73.30;39.08;;;7.90;99.90;;;;;;4788326;29;20215;-84
2022/01/16 10:17:20;;;;;;;69.22;38.13;;;7.00;99.90;;;;;;4804100;29;20066;-85
2022/01/16 10:20:01;;;;;;;59.22;33.60;;;7.70;99.90;;;;;;4804475;29;20050;-84
2022/01/16 10:22:45;;;;;;;71.40;36.50;;;7.30;99.90;;;;;;4787748;29;20062;-84
2022/01/16 10:25:12;;;;;;;66.97;35.67;;;7.60;99.90;;;;;;4803944;29;20054;-85
2022/01/16 10:27:39;;;;;;;69.85;38.25;;;7.60;99.90;;;;;;4802705;29;20057;-85
2022/01/16 10:30:08;;;;;;;76.03;37.50;;;7.60;99.90;;;;;;4805056;29;20082;-84
2022/01/16 10:32:45;;;;;;;81.50;38.65;;;7.50;99.90;;;;;;4789775;29;20058;-85
2022/01/16 10:35:22;;;;;;;83.05;39.28;;;7.60;99.90;;;;;;4806071;29;20054;-84
2022/01/16 10:37:53;;;;;;;77.22;37.53;;;7.50;99.90;;;;;;4786638;30;20223;-86
2022/01/16 10:40:21;;;;;;;76.15;37.03;;;7.50;99.90;;;;;;4783425;29;20055;-85
2022/01/16 10:42:57;;;;;;;68.18;35.97;;;9.00;99.90;;;;;;4803759;29;20085;-85
2022/01/16 10:45:26;;;;;;;74.13;37.83;;;7.20;99.90;;;;;;4803800;29;20051;-85
2022/01/16 10:47:54;;;;;;;71.20;36.03;;;9.00;99.90;;;;;;4787939;29;20051;-86
2022/01/16 10:50:28;;;;;;;;;;;7.60;99.90;;;;;;4803421;29;20350;-85
2022/01/16 10:53:04;;;;;;;68.93;33.08;;;7.60;99.90;;;;;;4791200;29;20057;-85
2022/01/16 10:55:30;;;;;;;63.75;34.85;;;8.20;99.90;;;;;;4799411;29;20123;-86
2022/01/16 10:58:04;;;;;;;68.18;33.08;;;8.00;99.90;;;;;;4781537;29;20062;-85
2022/01/16 11:00:29;;;;;;;61.53;33.38;;;7.40;99.90;;;;;;4803083;29;20086;-85
2022/01/16 11:02:59;;;;;;;63.17;32.10;;;7.60;99.90;;;;;;4804798;29;20087;-85
2022/01/16 11:05:27;;;;;;;57.15;29.73;;;7.60;99.90;;;;;;4805111;29;20138;-85
2022/01/16 11:08:05;;;;;;;59.88;28.60;;;8.20;99.90;;;;;;4803833;29;20067;-86
2022/01/16 11:10:36;;;;;;;53.58;27.55;;;7.70;99.90;;;;;;4807129;29;20046;-85
2022/01/16 11:13:08;;;;;;;53.88;25.48;;;7.90;99.90;;;;;;4807910;29;20047;-85
2022/01/16 11:15:35;;;;;;;47.10;25.13;;;7.90;99.90;;;;;;4787047;29;20086;-86
2022/01/16 11:18:03;;;;;;;51.10;22.17;;;7.60;99.90;;;;;;4787207;29;20070;-85
2022/01/16 11:20:34;;;;;;;47.10;22.30;;;8.00;99.90;;;;;;4787488;29;20350;-89
2022/01/16 11:23:11;;;;;;;54.95;23.77;;;7.70;99.90;;;;;;4804294;29;20326;-90
2022/01/16 11:25:39;;;;;;;40.33;19.85;;;8.10;99.90;;;;;;4786202;29;20397;-90
2022/01/16 11:28:16;;;;;;;39.42;19.70;;;7.80;99.90;;;;;;4787020;29;20054;-88
2022/01/16 11:30:49;;;;;;;37.65;18.00;;;6.20;99.90;;;;;;4786059;29;20069;-87
2022/01/16 11:33:15;;;;;;;40.60;18.65;;;7.60;99.90;;;;;;4809216;29;20039;-88
2022/01/16 11:35:49;;;;;;;36.70;18.38;;;8.70;99.90;;;;;;4788367;29;20047;-86
2022/01/16 11:38:19;;;;;;;37.30;16.80;;;9.40;99.90;;;;;;4813011;29;20057;-90
2022/01/16 11:40:46;;;;;;;40.85;18.13;;;7.30;99.90;;;;;;4805839;29;20070;-86
2022/01/16 11:43:22;;;;;;;35.08;16.17;;;10.30;99.90;;;;;;4806960;29;20061;-88
2022/01/16 11:45:54;;;;;;;36.03;16.25;;;7.80;99.90;;;;;;4791149;29;20051;-86
2022/01/16 11:48:38;;;;;;;35.05;15.52;;;7.80;99.90;;;;;;4789656;29;20063;-85
2022/01/16 11:51:06;;;;;;;34.78;13.85;;;7.80;99.90;;;;;;4806013;29;20121;-85
2022/01/16 11:54:06;;;;;;;32.55;14.32;;;11.10;99.90;;;;;;4806643;29;20129;-86
2022/01/16 11:56:37;;;;;;;31.05;13.60;;;7.90;99.90;;;;;;4790127;29;20035;-85
2022/01/16 11:59:14;;;;;;;39.13;13.43;;;9.40;99.90;;;;;;4807983;29;20050;-87
2022/01/16 12:01:45;;;;;;;29.95;12.38;;;7.90;99.90;;;;;;4792359;29;20085;-86
2022/01/16 12:04:29;;;;;;;34.85;12.93;;;7.90;99.90;;;;;;4807367;29;20051;-86
2022/01/16 12:07:12;;;;;;;26.80;11.60;;;10.30;99.90;;;;;;4807120;29;20125;-85
2022/01/16 12:09:39;;;;;;;34.78;12.65;;;7.90;99.90;;;;;;4806192;29;20106;-88
2022/01/16 12:12:16;;;;;;;33.53;12.55;;;7.80;99.90;;;;;;4775005;29;20066;-86
2022/01/16 12:14:56;;;;;;;30.25;12.20;;;8.50;99.90;;;;;;4790107;29;20585;-85
2022/01/16 12:20:12;;;;;;;34.45;10.65;;;8.00;99.90;;;;;;4805126;29;20054;-84
2022/01/16 12:22:56;;;;;;;27.40;10.93;;;9.00;99.90;;;;;;4805638;29;20058;-85
2022/01/16 12:25:36;;;;;;;31.08;11.38;;;8.00;99.90;;;;;;4806114;29;20134;-84
2022/01/16 12:28:05;;;;;;;31.52;11.50;;;8.10;99.90;;;;;;4805021;29;20141;-86
2022/01/16 12:30:45;;;;;;;27.55;10.98;;;7.90;99.90;;;;;;4779408;29;20138;-94
2022/01/16 12:33:20;;;;;;;30.08;10.98;;;10.30;99.90;;;;;;4804516;29;20480;-86
2022/01/16 12:35:50;;;;;;;25.65;9.70;;;;;;;;;;4805616;29;20507;-86
2022/01/16 12:38:23;;;;;;;29.23;10.13;;;8.10;99.90;;;;;;4775555;29;20059;-85
2022/01/16 12:41:09;;;;;;;28.38;9.75;;;9.70;99.90;;;;;;4820969;29;20115;-85
2022/01/16 12:43:41;;;;;;;26.42;9.02;;;8.00;99.90;;;;;;4808796;29;20145;-85
2022/01/16 12:46:13;;;;;;;25.35;9.18;;;5.90;99.90;;;;;;4823884;29;20065;-86
2022/01/16 12:48:44;;;;;;;25.33;9.77;;;8.10;99.90;;;;;;4824813;29;20046;-85
2022/01/16 12:51:13;;;;;;;23.63;9.70;;;8.00;99.90;;;;;;4797364;29;20392;-85
2022/01/16 12:53:45;;;;;;;26.83;9.27;;;8.20;99.90;;;;;;4790874;29;20051;-86
2022/01/16 12:56:24;;;;;;;27.23;9.05;;;8.00;99.90;;;;;;4818724;29;20077;-85
2022/01/16 12:58:53;;;;;;;29.45;9.20;;;8.10;99.90;;;;;;4801220;29;20077;-85
2022/01/16 13:01:57;;;;;;;22.35;9.55;;;8.30;99.90;;;;;;4772598;30;20094;-85
2022/01/16 13:04:29;;;;;;;34.50;10.43;;;9.90;99.90;;;;;;4791339;29;20066;-85
2022/01/16 13:06:57;;;;;;;31.42;9.25;;;8.10;99.90;;;;;;4805477;29;20057;-85
2022/01/16 13:09:24;;;;;;;30.10;9.20;;;10.40;99.90;;;;;;4801869;29;20112;-83
2022/01/16 13:11:52;;;;;;;26.95;9.60;;;8.00;99.90;;;;;;4804570;29;20047;-87
2022/01/16 13:14:25;;;;;;;31.17;10.75;;;9.40;99.90;;;;;;4786541;30;20132;-86
2022/01/16 13:16:59;;;;;;;26.00;9.70;;;9.20;99.90;;;;;;4772218;29;20059;-88
2022/01/16 13:19:28;;;;;;;31.52;9.57;;;8.30;99.90;;;;;;4804514;29;20096;-87
2022/01/16 13:24:36;;;;;;;21.73;9.23;;;8.20;99.90;;;;;;4803811;29;20066;-88
2022/01/16 13:27:08;;;;;;;26.00;10.13;;;8.90;99.90;;;;;;4793473;29;20057;-85
2022/01/16 13:29:39;;;;;;;23.17;9.80;;;9.70;99.90;;;;;;4788311;29;20066;-86